Time;durP1;ratioP1;P1;durP2;ratioP2;P2;SDS_P1;SDS_P2;PMS_P1;PMS_P2;Temp;Humidity;BMP_temperature;BMP_pressure;BME280_temperature;BME280_humidity;BME280_pressure;Samples;Min_cycle;Max_cycle;Signal;HPM_P1;HPM_P2
2023/04/29 06:00:57;;;;;;;;;;;;;;;;;;5744940;23;20442;-90
2023/04/29 06:03:22;;;;;;;;;;;;;;;;;;5013912;28;19921;-90
2023/04/29 06:05:48;;;;;;;;;;;;;;;;;;5013585;28;20524;-88
2023/04/29 06:08:14;;;;;;;;;;;;;;;;;;5013978;28;20512;-87
2023/04/29 06:10:39;;;;;;;;;;;;;;;;;;5014587;28;20405;-90
2023/04/29 06:13:04;;;;;;;;;;;;;;;;;;4997034;28;19921;-88
2023/04/29 06:15:29;;;;;;;;;;;;;;;;;;5014471;28;20297;-88
2023/04/29 06:17:55;;;;;;;;;;;;;;;;;;5014582;28;19922;-89
2023/04/29 06:20:20;;;;;;;;;;;;;;;;;;5014106;28;19929;-90
2023/04/29 06:22:46;;;;;;;;;;;;;;;;;;5014628;28;19931;-89
2023/04/29 06:25:12;;;;;;;;;;;;;;;;;;5014373;28;20426;-90
2023/04/29 06:27:38;;;;;;;;;;;;;;;;;;5013566;28;19944;-91
2023/04/29 06:30:03;;;;;;;;;;;;;;;;;;5014052;28;19928;-88
2023/04/29 06:32:28;;;;;;;;;;;;;;;;;;5014037;28;20446;-87
2023/04/29 06:34:53;;;;;;;;;;;;;;;;;;4996010;28;20000;-87
2023/04/29 06:37:19;;;;;;;;;;;;;;;;;;5013435;28;19928;-88
2023/04/29 06:39:44;;;;;;;;;;;;;;;;;;5014129;28;20011;-87
2023/04/29 06:42:09;;;;;;;;;;;;;;;;;;5013263;28;19925;-87
2023/04/29 06:44:35;;;;;;;;;;;;;;;;;;5014043;28;19925;-87
2023/04/29 06:47:01;;;;;;;;;;;;;;;;;;5013331;28;20373;-88
2023/04/29 06:49:26;;;;;;;;;;;;;;;;;;5013062;28;19921;-87
2023/04/29 06:51:51;;;;;;;;;;;;;;;;;;5013538;28;19952;-87
2023/04/29 06:54:18;;;;;;;;;;;;;;;;;;5026109;28;19928;-90
2023/04/29 06:56:44;;;;;;;;;;;;;;;;;;4991233;28;20397;-90
2023/04/29 06:59:14;;;;;;;;;;;;;;;;;;5003513;28;19931;-89
2023/04/29 07:01:39;;;;;;;;;;;;;;;;;;4988784;28;19932;-90
2023/04/29 07:04:07;;;;;;;;;;;;;;;;;;4990160;28;19921;-88
2023/04/29 07:06:32;;;;;;;;;;;;;;;;;;5011647;28;20343;-89
2023/04/29 07:08:58;;;;;;;;;;;;;;;;;;4993801;28;19932;-87
2023/04/29 07:11:30;;;;;;;;;;;;;;;;;;5015006;28;19939;-91
2023/04/29 07:13:55;;;;;;;;;;;;;;;;;;4986219;28;19932;-88
2023/04/29 07:16:21;;;;;;;;;;;;;;;;;;4986593;28;19925;-89
2023/04/29 07:18:49;;;;;;;;;;;;;;;;;;5005536;28;19975;-91
2023/04/29 07:21:15;;;;;;;;;;;;;;;;;;5005747;28;20010;-88
2023/04/29 07:23:40;;;;;;;;;;;;;;;;;;4990305;28;19957;-90
2023/04/29 07:26:14;;;;;;;;;;;;;;;;;;5010468;28;19931;-87
2023/04/29 07:28:48;;;;;;;;;;;;;;;;;;5003967;28;19925;-88
2023/04/29 07:31:20;;;;;;;;;;;;;;;;;;5004508;28;20003;-87
2023/04/29 07:33:55;;;;;;;;;;;;;;;;;;5002968;28;20016;-93
2023/04/29 07:36:21;;;;;;;;;;;;;;;;;;5004067;28;20464;-87
2023/04/29 07:38:46;;;;;;;;;;;;;;;;;;4982172;28;19947;-87
2023/04/29 07:41:12;;;;;;;;;;;;;;;;;;5015014;28;19921;-86
2023/04/29 07:43:37;;;;;;;;;;;;;;;;;;5005380;28;19925;-88
2023/04/29 07:46:03;;;;;;;;;;;;;;;;;;4996508;28;20376;-89
2023/04/29 07:48:28;;;;;;;;;;;;;;;;;;4995495;28;19926;-87
2023/04/29 07:50:53;;;;;;;;;;;;;;;;;;5005164;28;19925;-88
2023/04/29 07:53:24;;;;;;;;;;;;;;;;;;4991965;28;19930;-89
2023/04/29 07:55:49;;;;;;;;;;;;;;;;;;5005541;28;19925;-88
2023/04/29 07:58:14;;;;;;;;;;;;;;;;;;5004129;28;19932;-87
2023/04/29 08:00:41;;;;;;;;;;;;;;;;;;5017793;28;19928;-89
2023/04/29 08:03:06;;;;;;;;;;;;;;;;;;5005156;28;19983;-88
2023/04/29 08:05:33;;;;;;;;;;;;;;;;;;5005560;28;20075;-90
2023/04/29 08:07:58;;;;;;;;;;;;;;;;;;4995700;28;19926;-89
2023/04/29 08:10:23;;;;;;;;;;;;;;;;;;4983672;28;20002;-87
2023/04/29 08:12:52;;;;;;;;;;;;;;;;;;4978220;28;19921;-87
2023/04/29 08:15:17;;;;;;;;;;;;;;;;;;5000163;28;19922;-88
2023/04/29 08:17:42;;;;;;;;;;;;;;;;;;5005778;28;19987;-89
2023/04/29 08:20:08;;;;;;;;;;;;;;;;;;5004408;28;19925;-92
2023/04/29 08:22:33;;;;;;;;;;;;;;;;;;4996566;28;20705;-89
2023/04/29 08:24:59;;;;;;;;;;;;;;;;;;4996056;28;20134;-91
2023/04/29 08:27:49;;;;;;;;;;;;;;;;;;4985962;28;19984;-89
2023/04/29 08:30:15;;;;;;;;;;;;;;;;;;5005255;28;19921;-87
2023/04/29 08:33:07;;;;;;;;;;;;;;;;;;4975639;28;19925;-90
2023/04/29 08:35:48;;;;;;;;;;;;;;;;;;;;;
2023/04/29 08:38:54;;;;;;;;;;;;;;;;;;;;;
2023/04/29 08:44:39;;;;;;;;;;;;;;;;;;4962610;28;19925;-91
2023/04/29 08:47:37;;;;;;;;;;;;;;;;;;4987894;28;20004;-91
2023/04/29 08:50:28;;;;;;;;;;;;;;;;;;4981531;28;19925;-89
2023/04/29 08:52:54;;;;;;;;;;;;;;;;;;5007678;28;20252;-91
2023/04/29 08:55:28;;;;;;;;;;;;;;;;;;5003512;28;19925;-90
2023/04/29 08:57:57;;;;;;;;;;;;;;;;;;4988456;28;19925;-88
2023/04/29 09:00:23;;;;;;;;;;;;;;;;;;5011326;28;19921;-87
2023/04/29 09:03:19;;;;;;;;;;;;;;;;;;4980026;28;19948;-89
2023/04/29 09:05:53;;;;;;;;;;;;;;;;;;5004801;28;19926;-87
2023/04/29 09:08:23;;;;;;;;;;;;;;;;;;5003063;28;20303;-88
2023/04/29 09:10:54;;;;;;;;;;;;;;;;;;5014092;28;20008;-89
2023/04/29 09:13:23;;;;;;;;;;;;;;;;;;5012739;28;20020;-87
2023/04/29 09:15:48;;;;;;;;;;;;;;;;;;5013885;28;19960;-86
2023/04/29 09:18:33;;;;;;;;;;;;;;;;;;5023509;28;19987;-86
2023/04/29 09:21:03;;;;;;;;;;;;;;;;;;5015113;28;20368;-87
2023/04/29 09:23:35;;;;;;;;;;;;;;;;;;4966260;28;19929;-89
2023/04/29 09:26:01;;;;;;;;;;;;;;;;;;5014870;28;19921;-88
2023/04/29 09:28:26;;;;;;;;;;;;;;;;;;5014082;28;20440;-88
2023/04/29 09:30:51;;;;;;;;;;;;;;;;;;5015301;28;19964;-89
2023/04/29 09:33:17;;;;;;;;;;;;;;;;;;5000116;28;20091;-88
2023/04/29 09:39:26;;;;;;;;;;;;;;;;;;4963356;28;19933;-87
2023/04/29 09:41:55;;;;;;;;;;;;;;;;;;5014670;28;20698;-88
2023/04/29 09:44:21;;;;;;;;;;;;;;;;;;5014267;28;19940;-88
2023/04/29 09:46:56;;;;;;;;;;;;;;;;;;5014002;28;19921;-88
2023/04/29 09:49:25;;;;;;;;;;;;;;;;;;5013242;28;20008;-88
2023/04/29 09:51:54;;;;;;;;;;;;;;;;;;4996835;28;19929;-88
2023/04/29 09:54:21;;;;;;;;;;;;;;;;;;4985730;28;20349;-87
2023/04/29 09:56:51;;;;;;;;;;;;;;;;;;5027331;28;20020;-86
2023/04/29 09:59:16;;;;;;;;;;;;;;;;;;5012944;28;20022;-87
2023/04/29 10:01:42;;;;;;;;;;;;;;;;;;4997414;28;20378;-87
2023/04/29 10:04:10;;;;;;;;;;;;;;;;;;5013289;28;19925;-87
2023/04/29 10:06:36;;;;;;;;;;;;;;;;;;5013945;28;20015;-86
2023/04/29 10:09:02;;;;;;;;;;;;;;;;;;5013144;28;19925;-86
2023/04/29 10:11:27;;;;;;;;;;;;;;;;;;5013034;28;20101;-86
2023/04/29 10:13:53;;;;;;;;;;;;;;;;;;5012759;28;19975;-87
2023/04/29 10:16:31;;;;;;;;;;;;;;;;;;4995522;28;20450;-84
2023/04/29 10:18:59;;;;;;;;;;;;;;;;;;5013460;28;19921;-90
2023/04/29 10:21:31;;;;;;;;;;;;;;;;;;4994538;28;20374;-90
2023/04/29 10:23:57;;;;;;;;;;;;;;;;;;5003135;28;19953;-91
2023/04/29 10:26:26;;;;;;;;;;;;;;;;;;4997808;28;19949;-90
2023/04/29 10:28:53;;;;;;;;;;;;;;;;;;5016913;28;19932;-91
2023/04/29 10:31:18;;;;;;;;;;;;;;;;;;4999977;28;19925;-95
2023/04/29 10:33:47;;;;;;;;;;;;;;;;;;4997601;28;20436;-85
2023/04/29 10:36:12;;;;;;;;;;;;;;;;;;5012686;28;19927;-91
2023/04/29 10:38:46;;;;;;;;;;;;;;;;;;4997367;28;20301;-91
2023/04/29 10:41:33;;;;;;;;;;;;;;;;;;5014162;28;19925;-90
2023/04/29 10:43:58;;;;;;;;;;;;;;;;;;4980993;28;19971;-90
2023/04/29 10:46:27;;;;;;;;;;;;;;;;;;5014538;28;19929;-90
2023/04/29 10:48:59;;;;;;;;;;;;;;;;;;5015057;28;19922;-92
2023/04/29 10:51:41;;;;;;;;;;;;;;;;;;5013779;28;20240;-92
2023/04/29 10:54:09;;;;;;;;;;;;;;;;;;4999076;28;20329;-91
2023/04/29 10:56:52;;;;;;;;;;;;;;;;;;5015808;28;19921;-91
2023/04/29 10:59:46;;;;;;;;;;;;;;;;;;5014903;28;19925;-93
2023/04/29 11:02:19;;;;;;;;;;;;;;;;;;5010948;28;19921;-91
2023/04/29 11:05:07;;;;;;;;;;;;;;;;;;5007147;28;20019;-89
2023/04/29 11:08:21;;;;;;;;;;;;;;;;;;4962129;28;19929;-91
2023/04/29 11:10:59;;;;;;;;;;;;;;;;;;4996189;28;19949;-92
2023/04/29 11:13:26;;;;;;;;;;;;;;;;;;4998946;28;19985;-90
2023/04/29 11:15:52;;;;;;;;;;;;;;;;;;5002897;28;20005;-90
2023/04/29 11:18:17;;;;;;;;;;;;;;;;;;4990405;28;19959;-94
2023/04/29 11:21:16;;;;;;;;;;;;;;;;;;5015553;28;19921;-92
2023/04/29 11:23:50;;;;;;;;;;;;;;;;;;5009688;28;19921;-92
2023/04/29 11:26:22;;;;;;;;;;;;;;;;;;5013111;28;19980;-92
2023/04/29 11:28:50;;;;;;;;;;;;;;;;;;5014456;28;19922;-92
2023/04/29 11:31:18;;;;;;;;;;;;;;;;;;5011149;28;19918;-91
2023/04/29 11:33:48;;;;;;;;;;;;;;;;;;5022349;28;20343;-92
2023/04/29 11:36:20;;;;;;;;;;;;;;;;;;5010526;28;19921;-92
2023/04/29 11:38:49;;;;;;;;;;;;;;;;;;5015167;28;19921;-92
2023/04/29 11:41:45;;;;;;;;;;;;;;;;;;5001324;28;19925;-92
2023/04/29 11:44:26;;;;;;;;;;;;;;;;;;5013257;28;19929;-92
2023/04/29 11:47:05;;;;;;;;;;;;;;;;;;4998461;28;19922;-92
2023/04/29 11:49:33;;;;;;;;;;;;;;;;;;4983086;28;20017;-87
2023/04/29 11:52:06;;;;;;;;;;;;;;;;;;4996689;28;19921;-90
2023/04/29 11:54:35;;;;;;;;;;;;;;;;;;5014675;28;19927;-93
2023/04/29 11:57:03;;;;;;;;;;;;;;;;;;5017448;28;19925;-95
2023/04/29 11:59:35;;;;;;;;;;;;;;;;;;5002115;28;19989;-94
2023/04/29 12:02:00;;;;;;;;;;;;;;;;;;4995394;28;19933;-95
2023/04/29 12:04:26;;;;;;;;;;;;;;;;;;4999643;28;20286;-93
2023/04/29 12:06:52;;;;;;;;;;;;;;;;;;4996614;28;19925;-95
2023/04/29 12:09:18;;;;;;;;;;;;;;;;;;5005604;28;19929;-94
2023/04/29 12:11:43;;;;;;;;;;;;;;;;;;4995829;28;19928;-95
2023/04/29 12:14:09;;;;;;;;;;;;;;;;;;4995764;28;19921;-95
2023/04/29 12:16:34;;;;;;;;;;;;;;;;;;5000396;28;19922;-96
2023/04/29 12:19:00;;;;;;;;;;;;;;;;;;4996448;28;19925;-95
2023/04/29 12:21:28;;;;;;;;;;;;;;;;;;4998697;28;19922;-94
2023/04/29 12:23:57;;;;;;;;;;;;;;;;;;4999270;28;19922;-95
2023/04/29 12:26:23;;;;;;;;;;;;;;;;;;4988728;28;19921;-96
2023/04/29 12:28:55;;;;;;;;;;;;;;;;;;5009881;28;19965;-96
2023/04/29 12:31:25;;;;;;;;;;;;;;;;;;4992811;28;19921;-95
2023/04/29 12:33:55;;;;;;;;;;;;;;;;;;4995004;28;19921;-96
2023/04/29 12:36:22;;;;;;;;;;;;;;;;;;4987899;28;19937;-96
2023/04/29 12:38:54;;;;;;;;;;;;;;;;;;5028662;28;19917;-96
2023/04/29 12:41:36;;;;;;;;;;;;;;;;;;4948006;28;19928;-96
2023/04/29 12:47:09;;;;;;;;;;;;;;;;;;5141569;23;19928;-91
2023/04/29 12:49:36;;;;;;;;;;;;;;;;;;5003962;28;19921;-95
2023/04/29 12:52:02;;;;;;;;;;;;;;;;;;4997871;28;19932;-93
2023/04/29 12:54:27;;;;;;;;;;;;;;;;;;4995121;28;19922;-95
2023/04/29 12:56:52;;;;;;;;;;;;;;;;;;4995916;28;19922;-96
2023/04/29 12:59:17;;;;;;;;;;;;;;;;;;4993807;28;19952;-93
2023/04/29 13:01:43;;;;;;;;;;;;;;;;;;4993335;28;20386;-89
2023/04/29 13:04:10;;;;;;;;;;;;;;;;;;4992812;28;19922;-86
2023/04/29 13:06:41;;;;;;;;;;;;;;;;;;4992348;28;19933;-91
2023/04/29 13:09:10;;;;;;;;;;;;;;;;;;4974683;28;20012;-89
2023/04/29 13:11:35;;;;;;;;;;;;;;;;;;4994035;28;19988;-89
2023/04/29 13:14:01;;;;;;;;;;;;;;;;;;5011718;28;19926;-90
2023/04/29 13:16:26;;;;;;;;;;;;;;;;;;4995433;28;19930;-90
2023/04/29 13:18:52;;;;;;;;;;;;;;;;;;4982438;28;19928;-88
2023/04/29 13:21:17;;;;;;;;;;;;;;;;;;5009254;28;19953;-91
2023/04/29 13:23:42;;;;;;;;;;;;;;;;;;4984311;28;19948;-90
2023/04/29 13:26:11;;;;;;;;;;;;;;;;;;4989596;28;19937;-90
2023/04/29 13:28:40;;;;;;;;;;;;;;;;;;4993602;28;19925;-90
2023/04/29 13:31:05;;;;;;;;;;;;;;;;;;5025918;28;20241;-90
2023/04/29 13:33:33;;;;;;;;;;;;;;;;;;4997919;28;20004;-89
2023/04/29 13:35:58;;;;;;;;;;;;;;;;;;5025617;28;20433;-89
2023/04/29 13:38:27;;;;;;;;;;;;;;;;;;5027308;28;20028;-91
2023/04/29 13:40:58;;;;;;;;;;;;;;;;;;5005063;28;20296;-90
2023/04/29 13:43:23;;;;;;;;;;;;;;;;;;5009003;28;19933;-90
2023/04/29 13:45:50;;;;;;;;;;;;;;;;;;5010371;28;20390;-90
2023/04/29 13:48:24;;;;;;;;;;;;;;;;;;5026155;28;19928;-89
2023/04/29 13:50:49;;;;;;;;;;;;;;;;;;5030820;28;19927;-90
2023/04/29 13:53:21;;;;;;;;;;;;;;;;;;5031346;28;20020;-90
2023/04/29 13:55:46;;;;;;;;;;;;;;;;;;5031658;28;19925;-89
2023/04/29 13:58:17;;;;;;;;;;;;;;;;;;5024241;28;20333;-91
2023/04/29 14:00:43;;;;;;;;;;;;;;;;;;5000924;28;19960;-88
2023/04/29 14:03:08;;;;;;;;;;;;;;;;;;5005688;28;19925;-88
2023/04/29 14:05:34;;;;;;;;;;;;;;;;;;5007487;28;19921;-89
2023/04/29 14:07:59;;;;;;;;;;;;;;;;;;5008850;28;19977;-89
2023/04/29 14:10:25;;;;;;;;;;;;;;;;;;4994897;28;19936;-87
2023/04/29 14:12:58;;;;;;;;;;;;;;;;;;4999352;28;20322;-90
2023/04/29 14:15:27;;;;;;;;;;;;;;;;;;5012417;28;19921;-90
2023/04/29 14:17:53;;;;;;;;;;;;;;;;;;4994357;28;20675;-92
2023/04/29 14:20:28;;;;;;;;;;;;;;;;;;4999564;28;19945;-91
2023/04/29 14:22:53;;;;;;;;;;;;;;;;;;4988731;28;19929;-90
2023/04/29 14:25:25;;;;;;;;;;;;;;;;;;5019388;28;19917;-91
2023/04/29 14:27:50;;;;;;;;;;;;;;;;;;4978868;28;19922;-89
2023/04/29 14:30:15;;;;;;;;;;;;;;;;;;5021362;28;20008;-94
2023/04/29 14:32:41;;;;;;;;;;;;;;;;;;5023326;28;19936;-93
2023/04/29 14:35:44;;;;;;;;;;;;;;;;;;4992424;28;19931;-91
2023/04/29 14:38:09;;;;;;;;;;;;;;;;;;5007571;28;20052;-91
2023/04/29 14:40:37;;;;;;;;;;;;;;;;;;4990648;28;19943;-89
2023/04/29 14:43:06;;;;;;;;;;;;;;;;;;4983783;28;19937;-90
2023/04/29 14:46:09;;;;;;;;;;;;;;;;;;5008132;28;19945;-92
2023/04/29 14:48:34;;;;;;;;;;;;;;;;;;5004327;28;19921;-89
2023/04/29 14:51:02;;;;;;;;;;;;;;;;;;4998719;28;19980;-86
2023/04/29 14:53:28;;;;;;;;;;;;;;;;;;4998498;28;19925;-87
2023/04/29 14:55:53;;;;;;;;;;;;;;;;;;5001118;28;19948;-87
2023/04/29 14:58:31;;;;;;;;;;;;;;;;;;5010135;28;20016;-90
2023/04/29 15:01:21;;;;;;;;;;;;;;;;;;5002086;28;19937;-89
2023/04/29 15:03:46;;;;;;;;;;;;;;;;;;4992518;28;20294;-87
2023/04/29 15:06:18;;;;;;;;;;;;;;;;;;4980968;28;20026;-89
2023/04/29 15:08:46;;;;;;;;;;;;;;;;;;5005129;28;19953;-88
2023/04/29 15:11:14;;;;;;;;;;;;;;;;;;4995069;28;20405;-90
2023/04/29 15:13:46;;;;;;;;;;;;;;;;;;4992921;28;19926;-88
2023/04/29 15:16:17;;;;;;;;;;;;;;;;;;4998555;28;19925;-90
2023/04/29 15:18:45;;;;;;;;;;;;;;;;;;5002246;28;20266;-89
2023/04/29 15:21:11;;;;;;;;;;;;;;;;;;5010483;28;19925;-89
2023/04/29 15:23:43;;;;;;;;;;;;;;;;;;4986977;28;20296;-90
2023/04/29 15:26:09;;;;;;;;;;;;;;;;;;4991425;28;19929;-88
2023/04/29 15:28:42;;;;;;;;;;;;;;;;;;4979104;28;20366;-89
2023/04/29 15:31:11;;;;;;;;;;;;;;;;;;4992180;28;19922;-90
2023/04/29 15:33:36;;;;;;;;;;;;;;;;;;4999843;28;19944;-91
2023/04/29 15:36:02;;;;;;;;;;;;;;;;;;4979604;28;19922;-88
2023/04/29 15:38:30;;;;;;;;;;;;;;;;;;4979624;28;19934;-90
2023/04/29 15:41:00;;;;;;;;;;;;;;;;;;4991910;28;19922;-89
2023/04/29 15:43:32;;;;;;;;;;;;;;;;;;4993086;28;19922;-90
2023/04/29 15:45:57;;;;;;;;;;;;;;;;;;4977841;28;20151;-91
2023/04/29 15:48:29;;;;;;;;;;;;;;;;;;4989772;28;20004;-90
2023/04/29 15:50:54;;;;;;;;;;;;;;;;;;4995876;28;19921;-91
2023/04/29 15:53:22;;;;;;;;;;;;;;;;;;4999048;28;19922;-90
2023/04/29 15:55:51;;;;;;;;;;;;;;;;;;4992984;28;19930;-88
2023/04/29 15:58:17;;;;;;;;;;;;;;;;;;4993330;28;20302;-88
2023/04/29 16:00:43;;;;;;;;;;;;;;;;;;4994583;28;19929;-87
2023/04/29 16:03:08;;;;;;;;;;;;;;;;;;4981217;28;19925;-86
2023/04/29 16:05:35;;;;;;;;;;;;;;;;;;5000809;28;20322;-86
2023/04/29 16:08:01;;;;;;;;;;;;;;;;;;4983620;28;19932;-86
2023/04/29 16:10:42;;;;;;;;;;;;;;;;;;4995284;28;19925;-89
2023/04/29 16:13:10;;;;;;;;;;;;;;;;;;5009548;28;19925;-91
2023/04/29 16:16:01;;;;;;;;;;;;;;;;;;5016774;28;20373;-89
2023/04/29 16:18:27;;;;;;;;;;;;;;;;;;4989973;28;19968;-87
2023/04/29 16:20:58;;;;;;;;;;;;;;;;;;4987870;28;20130;-90
2023/04/29 16:23:23;;;;;;;;;;;;;;;;;;4984947;28;19988;-88
2023/04/29 16:25:49;;;;;;;;;;;;;;;;;;4970616;28;19926;-88
2023/04/29 16:28:14;;;;;;;;;;;;;;;;;;4967504;28;19926;-87
2023/04/29 16:30:39;;;;;;;;;;;;;;;;;;4984232;28;19948;-89
2023/04/29 16:33:05;;;;;;;;;;;;;;;;;;5005070;28;19944;-87
2023/04/29 16:35:36;;;;;;;;;;;;;;;;;;5000181;28;19961;-88
2023/04/29 16:38:02;;;;;;;;;;;;;;;;;;4987236;28;19961;-82
2023/04/29 16:40:30;;;;;;;;;;;;;;;;;;4994012;28;20450;-92
2023/04/29 16:42:56;;;;;;;;;;;;;;;;;;5005090;28;20016;-90
2023/04/29 16:45:25;;;;;;;;;;;;;;;;;;4987692;28;19957;-91
2023/04/29 16:47:50;;;;;;;;;;;;;;;;;;5006380;28;19937;-91
2023/04/29 16:50:16;;;;;;;;;;;;;;;;;;5006142;28;19922;-91
2023/04/29 16:52:42;;;;;;;;;;;;;;;;;;5006425;28;20016;-91
2023/04/29 16:55:07;;;;;;;;;;;;;;;;;;5006238;28;19925;-89
2023/04/29 16:57:32;;;;;;;;;;;;;;;;;;4989448;28;19924;-91
2023/04/29 16:59:58;;;;;;;;;;;;;;;;;;5005357;28;20361;-91
2023/04/29 17:02:23;;;;;;;;;;;;;;;;;;5005407;28;19925;-91
2023/04/29 17:04:49;;;;;;;;;;;;;;;;;;4988062;28;19925;-91
2023/04/29 17:07:18;;;;;;;;;;;;;;;;;;5005819;28;19925;-90
2023/04/29 17:09:46;;;;;;;;;;;;;;;;;;5004062;28;19956;-91
2023/04/29 17:12:11;;;;;;;;;;;;;;;;;;5005535;28;20416;-92
2023/04/29 17:14:36;;;;;;;;;;;;;;;;;;5005876;28;19960;-90
2023/04/29 17:17:03;;;;;;;;;;;;;;;;;;4988371;28;19921;-91
2023/04/29 17:19:28;;;;;;;;;;;;;;;;;;5004720;28;19973;-90
2023/04/29 17:21:56;;;;;;;;;;;;;;;;;;4988654;28;19968;-92
2023/04/29 17:24:24;;;;;;;;;;;;;;;;;;4987754;28;20290;-91
2023/04/29 17:26:49;;;;;;;;;;;;;;;;;;4982957;28;19925;-90
2023/04/29 17:29:18;;;;;;;;;;;;;;;;;;4997471;28;19972;-87
2023/04/29 17:31:44;;;;;;;;;;;;;;;;;;5006933;28;19926;-89
2023/04/29 17:34:22;;;;;;;;;;;;;;;;;;4999382;28;20008;-89
2023/04/29 17:36:49;;;;;;;;;;;;;;;;;;4984982;28;19945;-90
2023/04/29 17:39:20;;;;;;;;;;;;;;;;;;4991224;28;20402;-92
2023/04/29 17:41:49;;;;;;;;;;;;;;;;;;4977492;28;19961;-90
2023/04/29 17:44:39;;;;;;;;;;;;;;;;;;4992190;28;19932;-88
2023/04/29 17:47:08;;;;;;;;;;;;;;;;;;5010317;28;19921;-86
2023/04/29 17:49:58;;;;;;;;;;;;;;;;;;4949456;28;20412;-86
2023/04/29 17:52:23;;;;;;;;;;;;;;;;;;4990879;28;19940;-86
2023/04/29 17:54:55;;;;;;;;;;;;;;;;;;4988791;28;20421;-86
2023/04/29 17:57:20;;;;;;;;;;;;;;;;;;4976699;28;19972;-86
2023/04/29 17:59:46;;;;;;;;;;;;;;;;;;5004661;28;20369;-90
2023/04/29 18:02:17;;;;;;;;;;;;;;;;;;5001285;28;19929;-91
2023/04/29 18:04:46;;;;;;;;;;;;;;;;;;5000465;28;19925;-89
2023/04/29 18:07:17;;;;;;;;;;;;;;;;;;5004702;28;19969;-91
2023/04/29 18:09:50;;;;;;;;;;;;;;;;;;4974517;28;20429;-92
2023/04/29 18:12:22;;;;;;;;;;;;;;;;;;4975560;28;20413;-90
2023/04/29 18:14:48;;;;;;;;;;;;;;;;;;4998767;28;19949;-92
2023/04/29 18:17:16;;;;;;;;;;;;;;;;;;4977246;28;19922;-91
2023/04/29 18:19:44;;;;;;;;;;;;;;;;;;5003063;28;20325;-91
2023/04/29 18:22:16;;;;;;;;;;;;;;;;;;5012714;28;19926;-91
2023/04/29 18:24:45;;;;;;;;;;;;;;;;;;5014079;28;19968;-91
2023/04/29 18:27:39;;;;;;;;;;;;;;;;;;4974998;28;20448;-91
2023/04/29 18:30:10;;;;;;;;;;;;;;;;;;5010894;28;19921;-90
2023/04/29 18:32:42;;;;;;;;;;;;;;;;;;5006887;28;20401;-91
2023/04/29 18:35:16;;;;;;;;;;;;;;;;;;5006569;28;19969;-91
2023/04/29 18:37:44;;;;;;;;;;;;;;;;;;5002930;28;19926;-90
2023/04/29 18:40:13;;;;;;;;;;;;;;;;;;5000330;28;19957;-88
2023/04/29 18:43:10;;;;;;;;;;;;;;;;;;4976440;28;20068;-89
2023/04/29 18:46:07;;;;;;;;;;;;;;;;;;4955010;28;20009;-88
2023/04/29 18:48:39;;;;;;;;;;;;;;;;;;5002774;28;20630;-90
2023/04/29 18:51:32;;;;;;;;;;;;;;;;;;5000922;28;20553;-89
2023/04/29 18:54:03;;;;;;;;;;;;;;;;;;4991770;28;20586;-88
2023/04/29 18:56:39;;;;;;;;;;;;;;;;;;4994568;28;19943;-89
2023/04/29 18:59:30;;;;;;;;;;;;;;;;;;4996601;28;19960;-89
2023/04/29 19:02:03;;;;;;;;;;;;;;;;;;4995442;28;19965;-89
2023/04/29 19:04:40;;;;;;;;;;;;;;;;;;5001632;28;19925;-91
2023/04/29 19:07:20;;;;;;;;;;;;;;;;;;4994873;28;20353;-88
2023/04/29 19:09:45;;;;;;;;;;;;;;;;;;4992192;28;19952;-88
2023/04/29 19:15:54;;;;;;;;;;;;;;;;;;4948081;28;19985;-87
2023/04/29 19:18:21;;;;;;;;;;;;;;;;;;4950186;29;19922;-90
2023/04/29 19:20:57;;;;;;;;;;;;;;;;;;4958964;29;19907;-88
2023/04/29 19:23:22;;;;;;;;;;;;;;;;;;4970726;29;19917;-89
2023/04/29 19:25:47;;;;;;;;;;;;;;;;;;4951881;29;19910;-90
2023/04/29 19:28:15;;;;;;;;;;;;;;;;;;4951092;29;19926;-89
2023/04/29 19:30:41;;;;;;;;;;;;;;;;;;4972088;28;20279;-88
2023/04/29 19:33:07;;;;;;;;;;;;;;;;;;4937115;29;19922;-89
2023/04/29 19:35:32;;;;;;;;;;;;;;;;;;4954082;29;19934;-87
2023/04/29 19:37:57;;;;;;;;;;;;;;;;;;4952113;29;19926;-90
2023/04/29 19:40:23;;;;;;;;;;;;;;;;;;4924481;29;19961;-91
2023/04/29 19:42:48;;;;;;;;;;;;;;;;;;4941933;29;19923;-90
2023/04/29 19:45:13;;;;;;;;;;;;;;;;;;4926533;28;20805;-88
2023/04/29 19:47:38;;;;;;;;;;;;;;;;;;4950358;29;19929;-90
2023/04/29 19:50:04;;;;;;;;;;;;;;;;;;4934214;29;19926;-90
2023/04/29 19:52:32;;;;;;;;;;;;;;;;;;4938460;28;19937;-90
2023/04/29 19:54:58;;;;;;;;;;;;;;;;;;4947270;28;20020;-90
2023/04/29 19:57:27;;;;;;;;;;;;;;;;;;4931298;29;20485;-90
2023/04/29 19:59:53;;;;;;;;;;;;;;;;;;4950047;29;19919;-89
2023/04/29 20:02:24;;;;;;;;;;;;;;;;;;4949529;29;19922;-89
2023/04/29 20:04:54;;;;;;;;;;;;;;;;;;4938036;29;19922;-90
2023/04/29 20:07:20;;;;;;;;;;;;;;;;;;4931529;29;19954;-88
2023/04/29 20:09:45;;;;;;;;;;;;;;;;;;4949019;29;20382;-90
2023/04/29 20:12:14;;;;;;;;;;;;;;;;;;4950518;29;19929;-90
2023/04/29 20:15:11;;;;;;;;;;;;;;;;;;4932678;28;19926;-90
2023/04/29 20:17:38;;;;;;;;;;;;;;;;;;4948749;29;19929;-88
2023/04/29 20:20:09;;;;;;;;;;;;;;;;;;4938310;29;20013;-90
2023/04/29 20:22:38;;;;;;;;;;;;;;;;;;4930042;29;19926;-91
2023/04/29 20:25:28;;;;;;;;;;;;;;;;;;4914818;29;20065;-89
2023/04/29 20:27:55;;;;;;;;;;;;;;;;;;4928970;29;19931;-88
2023/04/29 20:30:21;;;;;;;;;;;;;;;;;;4941604;28;20350;-88
2023/04/29 20:32:47;;;;;;;;;;;;;;;;;;4959831;28;19926;-89
2023/04/29 20:35:40;;;;;;;;;;;;;;;;;;4924616;28;19985;-91
2023/04/29 20:38:06;;;;;;;;;;;;;;;;;;4947511;29;19926;-88
2023/04/29 20:40:34;;;;;;;;;;;;;;;;;;4937528;29;20363;-88
2023/04/29 20:43:06;;;;;;;;;;;;;;;;;;4949568;29;19932;-89
2023/04/29 20:45:31;;;;;;;;;;;;;;;;;;4947033;28;19977;-90
2023/04/29 20:47:57;;;;;;;;;;;;;;;;;;4949884;28;20084;-92
2023/04/29 20:50:23;;;;;;;;;;;;;;;;;;4931925;29;19922;-91
2023/04/29 20:52:48;;;;;;;;;;;;;;;;;;4933154;29;20330;-91
2023/04/29 20:55:15;;;;;;;;;;;;;;;;;;4948851;29;19936;-92
2023/04/29 20:57:41;;;;;;;;;;;;;;;;;;4934195;29;19914;-93
2023/04/29 21:00:10;;;;;;;;;;;;;;;;;;4952034;29;19950;-93
2023/04/29 21:02:35;;;;;;;;;;;;;;;;;;4948145;28;19989;-92
2023/04/29 21:05:08;;;;;;;;;;;;;;;;;;4922379;28;19969;-91
2023/04/29 21:07:34;;;;;;;;;;;;;;;;;;4934990;29;20379;-92
2023/04/29 21:10:00;;;;;;;;;;;;;;;;;;4935974;29;19918;-87
2023/04/29 21:12:25;;;;;;;;;;;;;;;;;;4963978;28;20311;-90
2023/04/29 21:14:53;;;;;;;;;;;;;;;;;;4974327;28;19926;-88
2023/04/29 21:17:19;;;;;;;;;;;;;;;;;;4975480;28;20013;-91
2023/04/29 21:19:44;;;;;;;;;;;;;;;;;;4976609;28;20012;-90
2023/04/29 21:22:09;;;;;;;;;;;;;;;;;;4976859;28;19944;-86
2023/04/29 21:24:35;;;;;;;;;;;;;;;;;;4975500;28;19926;-88
2023/04/29 21:27:30;;;;;;;;;;;;;;;;;;4974764;28;19922;-95
2023/04/29 21:29:56;;;;;;;;;;;;;;;;;;4925303;28;19952;-89
2023/04/29 21:32:24;;;;;;;;;;;;;;;;;;4964689;28;19922;-91
2023/04/29 21:34:56;;;;;;;;;;;;;;;;;;4976782;28;19922;-90
2023/04/29 21:37:21;;;;;;;;;;;;;;;;;;4945517;29;20009;-89
2023/04/29 21:39:46;;;;;;;;;;;;;;;;;;4970177;28;20370;-89
2023/04/29 21:42:12;;;;;;;;;;;;;;;;;;4976388;28;19922;-89
2023/04/29 21:44:37;;;;;;;;;;;;;;;;;;4976922;28;20025;-89
2023/04/29 21:47:03;;;;;;;;;;;;;;;;;;4960268;28;20008;-89
2023/04/29 21:49:28;;;;;;;;;;;;;;;;;;4977044;28;19965;-88
2023/04/29 21:51:54;;;;;;;;;;;;;;;;;;4977067;28;20513;-88
2023/04/29 21:54:19;;;;;;;;;;;;;;;;;;4975736;28;19922;-89
2023/04/29 21:56:44;;;;;;;;;;;;;;;;;;4977909;28;19922;-89
2023/04/29 21:59:10;;;;;;;;;;;;;;;;;;4975575;28;19922;-89
2023/04/29 22:01:46;;;;;;;;;;;;;;;;;;4970680;28;20002;-89
2023/04/29 22:04:12;;;;;;;;;;;;;;;;;;4956597;29;19918;-89
2023/04/29 22:06:37;;;;;;;;;;;;;;;;;;4939161;29;20434;-89
2023/04/29 22:09:03;;;;;;;;;;;;;;;;;;4956695;29;20379;-89
2023/04/29 22:11:28;;;;;;;;;;;;;;;;;;4955524;28;19929;-90
2023/04/29 22:13:54;;;;;;;;;;;;;;;;;;4975589;28;20043;-90
2023/04/29 22:16:19;;;;;;;;;;;;;;;;;;4974562;28;19922;-89
2023/04/29 22:18:44;;;;;;;;;;;;;;;;;;4975499;28;19944;-90
2023/04/29 22:21:09;;;;;;;;;;;;;;;;;;4975158;28;20412;-90
2023/04/29 22:23:35;;;;;;;;;;;;;;;;;;4976100;28;19925;-91
2023/04/29 22:26:00;;;;;;;;;;;;;;;;;;4976235;28;20461;-91
2023/04/29 22:28:26;;;;;;;;;;;;;;;;;;4975385;28;19922;-91
2023/04/29 22:30:51;;;;;;;;;;;;;;;;;;4958829;28;19919;-91
2023/04/29 22:33:17;;;;;;;;;;;;;;;;;;4953913;28;20017;-89
2023/04/29 22:35:42;;;;;;;;;;;;;;;;;;4975447;28;19922;-91
2023/04/29 22:38:08;;;;;;;;;;;;;;;;;;4957562;28;19977;-90
2023/04/29 22:40:33;;;;;;;;;;;;;;;;;;4974812;28;19929;-90
2023/04/29 22:43:00;;;;;;;;;;;;;;;;;;4975568;28;20466;-91
2023/04/29 22:45:25;;;;;;;;;;;;;;;;;;4974345;28;20342;-89
2023/04/29 22:47:50;;;;;;;;;;;;;;;;;;4974490;28;19932;-89
2023/04/29 22:50:15;;;;;;;;;;;;;;;;;;4974201;28;20298;-89
2023/04/29 22:52:41;;;;;;;;;;;;;;;;;;4973267;28;19974;-89
2023/04/29 22:55:07;;;;;;;;;;;;;;;;;;4974457;28;19981;-89
2023/04/29 22:57:32;;;;;;;;;;;;;;;;;;4974998;28;20107;-89
2023/04/29 22:59:57;;;;;;;;;;;;;;;;;;4974587;28;19929;-89
